ADDS TAF Data INFO
IDs: Format: Raw Decoded Include METARs

Data at: 1749 UTC 25 Feb 2018

KCNY 251653Z AUTO 26013KT 10SM CLR 00/M11 A3016 RMK AO2 SLP240 T00001111

KCNY 251728Z 2518/2618 26010KT P6SM FEW130 FEW250
  FM260000 25006KT P6SM FEW130 FEW250
  FM260500 VRB04KT P6SM FEW130 FEW200